createdAt,value
2023-05-01T00:00:07.961Z,33.1
2023-05-01T00:01:09.739Z,33.1
2023-05-01T00:02:11.685Z,33
2023-05-01T00:03:14.054Z,33
2023-05-01T00:04:17.253Z,33
2023-05-01T00:05:19.867Z,33
2023-05-01T00:06:21.769Z,33
2023-05-01T00:07:23.774Z,33
2023-05-01T00:08:25.649Z,32.9
2023-05-01T00:09:27.476Z,33
2023-05-01T00:10:29.213Z,33
2023-05-01T00:11:30.956Z,33
2023-05-01T00:12:32.744Z,33
2023-05-01T00:13:34.454Z,32.9
2023-05-01T00:14:36.109Z,33
2023-05-01T00:15:37.955Z,33
2023-05-01T00:16:40.064Z,33
2023-05-01T00:17:42.313Z,32.9
2023-05-01T00:18:44.220Z,32.9
2023-05-01T00:19:46.073Z,32.9
2023-05-01T00:20:47.930Z,32.9
2023-05-01T00:21:49.875Z,32.9
2023-05-01T00:22:51.819Z,32.9
2023-05-01T00:23:53.692Z,32.9
2023-05-01T00:24:55.527Z,32.9
2023-05-01T00:25:57.384Z,32.9
2023-05-01T00:26:59.207Z,32.9
2023-05-01T00:28:01.090Z,32.9
2023-05-01T00:29:02.905Z,32.9
2023-05-01T00:30:04.708Z,32.9
2023-05-01T00:31:06.419Z,32.9
2023-05-01T00:32:08.402Z,32.9
2023-05-01T00:33:10.866Z,32.9
2023-05-01T00:34:12.890Z,32.9
2023-05-01T00:35:14.740Z,32.8
2023-05-01T00:36:16.693Z,32.8
2023-05-01T00:37:18.557Z,32.9
2023-05-01T00:38:20.403Z,32.8
2023-05-01T00:39:22.371Z,32.8
2023-05-01T00:40:24.206Z,32.8
2023-05-01T00:41:26.050Z,32.8
2023-05-01T00:42:28.015Z,32.8
2023-05-01T00:43:29.860Z,32.8
2023-05-01T00:44:31.674Z,32.8
2023-05-01T00:45:33.672Z,32.8
2023-05-01T00:46:35.554Z,32.8
2023-05-01T00:47:37.712Z,32.8
2023-05-01T00:48:39.832Z,32.8
2023-05-01T00:49:41.663Z,32.8
2023-05-01T00:50:43.523Z,32.8
2023-05-01T00:51:45.479Z,32.8
2023-05-01T00:52:47.336Z,32.7
2023-05-01T00:53:49.174Z,32.8
2023-05-01T00:54:51.049Z,32.7
2023-05-01T00:55:52.966Z,32.8
2023-05-01T00:56:54.737Z,32.8
2023-05-01T00:57:56.480Z,32.7
2023-05-01T00:58:58.334Z,32.7
2023-05-01T01:00:03.174Z,32.7
2023-05-01T01:01:05.120Z,32.7
2023-05-01T01:02:07.247Z,32.8
2023-05-01T01:03:09.293Z,32.8
2023-05-01T01:04:11.506Z,32.8
2023-05-01T01:05:13.644Z,32.7
2023-05-01T01:06:15.510Z,32.7
2023-05-01T01:07:17.430Z,32.7
2023-05-01T01:08:19.309Z,32.7
2023-05-01T01:09:20.892Z,32.7
2023-05-01T01:10:22.553Z,32.6
2023-05-01T01:11:24.139Z,32.6
2023-05-01T01:12:25.805Z,32.6
2023-05-01T01:13:27.494Z,32.6
2023-05-01T01:14:29.361Z,32.6
2023-05-01T01:15:30.936Z,32.6
2023-05-01T01:16:32.577Z,32.6
2023-05-01T01:17:34.721Z,32.6
2023-05-01T01:18:36.501Z,32.6
2023-05-01T01:19:38.173Z,32.5
2023-05-01T01:20:39.838Z,32.5
2023-05-01T01:21:41.618Z,32.5
2023-05-01T01:22:43.329Z,32.5
2023-05-01T01:23:45.009Z,32.5
2023-05-01T01:24:46.626Z,32.5
2023-05-01T01:25:48.456Z,32.5
2023-05-01T01:26:50.275Z,32.5
2023-05-01T01:27:52.065Z,32.5
2023-05-01T01:28:53.702Z,32.5
2023-05-01T01:29:56.305Z,32.5
2023-05-01T01:30:59.148Z,32.5
2023-05-01T01:32:01.001Z,32.4
2023-05-01T01:33:02.973Z,32.4
2023-05-01T01:34:04.766Z,32.4
2023-05-01T01:35:06.553Z,32.4
2023-05-01T01:36:08.400Z,32.4
2023-05-01T01:37:10.245Z,32.4
2023-05-01T01:38:11.991Z,32.4
2023-05-01T01:39:13.844Z,32.4
2023-05-01T01:40:15.701Z,32.4
2023-05-01T01:41:17.476Z,32.4
2023-05-01T01:42:19.295Z,32.4
2023-05-01T01:43:21.145Z,32.4
2023-05-01T01:44:22.905Z,32.4
2023-05-01T01:45:24.742Z,32.4
2023-05-01T01:46:26.626Z,32.4
2023-05-01T01:47:28.864Z,32.4
2023-05-01T01:48:30.686Z,32.4
2023-05-01T01:49:32.555Z,32.4
2023-05-01T01:50:34.266Z,32.4
2023-05-01T01:51:36.012Z,32.4
2023-05-01T01:52:37.902Z,32.4
2023-05-01T01:53:39.617Z,32.4
2023-05-01T01:54:41.254Z,32.4
2023-05-01T01:55:42.947Z,32.4
2023-05-01T01:56:44.917Z,32.4
2023-05-01T01:57:46.725Z,32.4
2023-05-01T01:58:48.592Z,32.4
2023-05-01T01:59:50.466Z,32.4
2023-05-01T02:00:52.189Z,32.4
2023-05-01T02:01:54.239Z,32.4
2023-05-01T02:02:56.542Z,32.4
2023-05-01T02:03:58.805Z,32.4
2023-05-01T02:05:01.027Z,32.4
2023-05-01T02:06:03.004Z,32.4
2023-05-01T02:07:05.031Z,32.4
2023-05-01T02:08:06.878Z,32.4
2023-05-01T02:09:08.823Z,32.4
2023-05-01T02:10:10.686Z,32.4
2023-05-01T02:11:12.504Z,32.4
2023-05-01T02:12:14.505Z,32.4
2023-05-01T02:13:16.325Z,32.4
2023-05-01T02:14:18.185Z,32.4
2023-05-01T02:15:20.040Z,32.4
2023-05-01T02:16:22.011Z,32.4
2023-05-01T02:17:24.063Z,32.4
2023-05-01T02:18:26.005Z,32.4
2023-05-01T02:19:27.843Z,32.4
2023-05-01T02:20:29.788Z,32.3
2023-05-01T02:21:31.646Z,32.3
2023-05-01T02:22:33.493Z,32.3
2023-05-01T02:23:35.213Z,32.3
2023-05-01T02:24:36.790Z,32.3
2023-05-01T02:25:38.641Z,32.3
2023-05-01T02:26:40.486Z,32.3
2023-05-01T02:27:42.462Z,32.4
2023-05-01T02:28:44.303Z,32.3
2023-05-01T02:29:46.132Z,32.3
2023-05-01T02:30:47.979Z,32.3
2023-05-01T02:31:50.049Z,32.3
2023-05-01T02:32:52.221Z,32.3
2023-05-01T02:33:54.249Z,32.3
2023-05-01T02:34:56.004Z,32.3
2023-05-01T02:35:57.945Z,32.3
2023-05-01T02:36:59.801Z,32.3
2023-05-01T02:38:01.649Z,32.3
2023-05-01T02:39:03.600Z,32.3
2023-05-01T02:40:05.448Z,32.3
2023-05-01T02:41:07.307Z,32.3
2023-05-01T02:42:09.161Z,32.3
2023-05-01T02:43:11.137Z,32.3
2023-05-01T02:44:15.795Z,32.3
2023-05-01T02:45:17.688Z,32.3
2023-05-01T02:46:19.729Z,32.3
2023-05-01T02:47:21.925Z,32.3
2023-05-01T02:48:23.940Z,32.3
2023-05-01T02:49:25.692Z,32.3
2023-05-01T02:50:27.360Z,32.3
2023-05-01T02:51:29.187Z,32.3
2023-05-01T02:52:31.041Z,32.3
2023-05-01T02:53:32.885Z,32.3
2023-05-01T02:54:34.713Z,32.3
2023-05-01T02:55:36.695Z,32.3
2023-05-01T02:56:38.559Z,32.3
2023-05-01T02:57:40.390Z,32.3
2023-05-01T02:58:42.258Z,32.3
2023-05-01T02:59:44.096Z,32.3
2023-05-01T03:00:46.207Z,32.3
2023-05-01T03:01:48.375Z,32.3
2023-05-01T03:02:50.579Z,32.3
2023-05-01T03:03:52.620Z,32.3
2023-05-01T03:04:54.661Z,32.3
2023-05-01T03:05:56.625Z,32.3
2023-05-01T03:06:58.577Z,32.2
2023-05-01T03:08:00.521Z,32.2
2023-05-01T03:09:02.380Z,32.2
2023-05-01T03:10:04.262Z,32.2
2023-05-01T03:11:06.301Z,32.2
2023-05-01T03:12:08.023Z,32.2
2023-05-01T03:13:09.864Z,32.2
2023-05-01T03:14:11.854Z,32.2
2023-05-01T03:15:13.797Z,32.2
2023-05-01T03:16:15.787Z,32.1
2023-05-01T03:17:17.798Z,32.2
2023-05-01T03:18:19.535Z,32.2
2023-05-01T03:19:21.623Z,32.2
2023-05-01T03:20:24.862Z,32.2
2023-05-01T03:21:29.179Z,32.1
2023-05-01T03:22:30.921Z,32.2
2023-05-01T03:23:32.771Z,32.1
2023-05-01T03:24:34.630Z,32.1
2023-05-01T03:25:36.582Z,32.1
2023-05-01T03:26:38.328Z,32.1
2023-05-01T03:27:40.176Z,32.1
2023-05-01T03:28:41.985Z,32.1
2023-05-01T03:29:43.756Z,32.1
2023-05-01T03:30:45.718Z,32.1
2023-05-01T03:31:47.583Z,32.1
2023-05-01T03:32:49.574Z,32.1
2023-05-01T03:33:51.486Z,32
2023-05-01T03:34:53.519Z,32
2023-05-01T03:35:55.391Z,32
2023-05-01T03:36:57.179Z,32.1
2023-05-01T03:37:58.984Z,32.1
2023-05-01T03:39:00.842Z,32.1
2023-05-01T03:40:02.754Z,32.1
2023-05-01T03:41:04.737Z,32.1
2023-05-01T03:42:06.581Z,32.2
2023-05-01T03:43:08.435Z,32.1
2023-05-01T03:44:10.304Z,32.1
2023-05-01T03:45:12.170Z,32.1
2023-05-01T03:46:13.988Z,32.1
2023-05-01T03:47:16.034Z,32.1
2023-05-01T03:48:17.783Z,32.1
2023-05-01T03:49:19.536Z,32.1
2023-05-01T03:50:21.291Z,32.1
2023-05-01T03:51:23.243Z,32.1
2023-05-01T03:52:25.093Z,32.1
2023-05-01T03:53:26.939Z,32.1
2023-05-01T03:54:28.741Z,32.1
2023-05-01T03:55:30.435Z,32.1
2023-05-01T03:56:32.389Z,32.1
2023-05-01T03:57:34.219Z,32.1
2023-05-01T03:58:35.849Z,32.1
2023-05-01T03:59:37.535Z,32
2023-05-01T04:00:39.606Z,32
2023-05-01T04:01:41.573Z,32
2023-05-01T04:02:43.659Z,32
2023-05-01T04:03:46.424Z,32
2023-05-01T04:04:48.517Z,32
2023-05-01T04:05:50.432Z,32
2023-05-01T04:06:52.442Z,32
2023-05-01T04:07:54.355Z,32
2023-05-01T04:08:56.240Z,32
2023-05-01T04:09:58.356Z,31.9
2023-05-01T04:11:00.125Z,31.9
2023-05-01T04:12:01.866Z,31.9
2023-05-01T04:13:03.452Z,31.9
2023-05-01T04:14:05.069Z,31.9
2023-05-01T04:15:06.757Z,31.9
2023-05-01T04:16:08.806Z,31.9
2023-05-01T04:17:10.563Z,31.9
2023-05-01T04:18:12.486Z,31.9
2023-05-01T04:19:14.419Z,31.9
2023-05-01T04:20:16.370Z,31.9
2023-05-01T04:21:18.324Z,31.9
2023-05-01T04:22:20.321Z,31.9
2023-05-01T04:23:24.875Z,31.9
2023-05-01T04:24:26.700Z,31.9
2023-05-01T04:25:28.699Z,31.9
2023-05-01T04:26:30.513Z,31.9
2023-05-01T04:27:32.334Z,31.9
2023-05-01T04:28:33.992Z,31.8
2023-05-01T04:29:35.894Z,31.6
2023-05-01T04:30:37.704Z,31.3
2023-05-01T04:31:39.663Z,31.1
2023-05-01T04:32:41.864Z,31
2023-05-01T04:33:43.666Z,30.8
2023-05-01T04:34:45.482Z,30.7
2023-05-01T04:35:47.098Z,30.6
2023-05-01T04:36:48.887Z,30.6
2023-05-01T04:37:50.691Z,30.6
2023-05-01T04:38:52.318Z,30.8
2023-05-01T04:39:54.417Z,30.7
2023-05-01T04:40:57.162Z,30.7
2023-05-01T04:41:59.012Z,30.9
2023-05-01T04:43:00.852Z,30.9
2023-05-01T04:44:05.386Z,31
2023-05-01T04:45:07.327Z,30.9
2023-05-01T04:46:09.282Z,30.9
2023-05-01T04:47:11.727Z,30.9
2023-05-01T04:48:13.804Z,30.8
2023-05-01T04:49:15.748Z,30.8
2023-05-01T04:50:17.698Z,30.8
2023-05-01T04:51:19.547Z,30.8
2023-05-01T04:52:21.349Z,30.9
2023-05-01T04:53:22.948Z,31
2023-05-01T04:54:24.671Z,31.1
2023-05-01T04:55:26.793Z,31.2
2023-05-01T04:56:32.639Z,31.2
2023-05-01T04:57:34.212Z,31.1
2023-05-01T04:58:35.885Z,31.1
2023-05-01T04:59:37.739Z,31.1
2023-05-01T05:00:39.588Z,31
2023-05-01T05:01:41.643Z,31
2023-05-01T05:02:43.878Z,31
2023-05-01T05:03:50.282Z,31
2023-05-01T05:04:52.925Z,31
2023-05-01T05:05:57.607Z,30.9
2023-05-01T05:06:59.593Z,30.9
2023-05-01T05:08:01.376Z,30.9
2023-05-01T05:09:03.190Z,30.9
2023-05-01T05:10:04.770Z,30.9
2023-05-01T05:11:06.371Z,30.9
2023-05-01T05:12:08.247Z,30.8
2023-05-01T05:13:10.100Z,30.8
2023-05-01T05:14:11.697Z,30.8
2023-05-01T05:15:13.369Z,30.7
2023-05-01T05:16:15.403Z,30.7
2023-05-01T05:17:17.366Z,30.7
2023-05-01T05:18:19.130Z,30.6
2023-05-01T05:19:20.847Z,30.6
2023-05-01T05:20:22.514Z,30.6
2023-05-01T05:21:24.302Z,30.5
2023-05-01T05:22:25.975Z,30.6
2023-05-01T05:23:27.756Z,30.5
2023-05-01T05:24:29.563Z,30.5
2023-05-01T05:25:31.215Z,30.5
2023-05-01T05:26:32.796Z,30.5
2023-05-01T05:27:34.543Z,30.5
2023-05-01T05:28:36.287Z,30.6
2023-05-01T05:29:38.138Z,30.6
2023-05-01T05:30:40.098Z,30.7
2023-05-01T05:31:41.985Z,30.7
2023-05-01T05:32:44.001Z,30.6
2023-05-01T05:33:45.997Z,30.6
2023-05-01T05:34:47.601Z,30.6
2023-05-01T05:35:49.206Z,30.6
2023-05-01T05:36:50.787Z,30.6
2023-05-01T05:37:52.381Z,30.5
2023-05-01T05:38:53.957Z,30.5
2023-05-01T05:39:56.201Z,30.4
2023-05-01T05:40:58.905Z,30.4
2023-05-01T05:42:00.854Z,30.4
2023-05-01T05:43:02.676Z,30.4
2023-05-01T05:44:04.512Z,30.4
2023-05-01T05:45:09.369Z,30.4
2023-05-01T05:46:11.356Z,30.4
2023-05-01T05:47:13.585Z,30.4
2023-05-01T05:48:15.679Z,30.3
2023-05-01T05:49:17.921Z,30.3
2023-05-01T05:50:19.709Z,30.3
2023-05-01T05:51:21.315Z,30.3
2023-05-01T05:52:23.029Z,30.3
2023-05-01T05:53:26.555Z,30.3
2023-05-01T05:54:28.589Z,30.3
2023-05-01T05:55:30.391Z,30.2
2023-05-01T05:56:32.028Z,30.2
2023-05-01T05:57:33.605Z,30.2
2023-05-01T05:58:35.471Z,30.3
2023-05-01T05:59:37.427Z,30.2
2023-05-01T06:00:38.997Z,30.2
2023-05-01T06:01:40.611Z,30.2
2023-05-01T06:02:42.640Z,30.2
2023-05-01T06:03:44.858Z,30.1
2023-05-01T06:04:46.907Z,30.1
2023-05-01T06:05:48.878Z,30.2
2023-05-01T06:06:50.936Z,30.2
2023-05-01T06:07:53.041Z,30.2
2023-05-01T06:08:54.849Z,30.2
2023-05-01T06:09:57.028Z,30.2
2023-05-01T06:10:59.717Z,30.2
2023-05-01T06:12:01.469Z,30.1
2023-05-01T06:13:14.796Z,30.1
2023-05-01T06:14:16.835Z,30.1
2023-05-01T06:15:18.811Z,30.1
2023-05-01T06:16:20.797Z,30.1
2023-05-01T06:17:22.897Z,30.1
2023-05-01T06:18:24.991Z,30.1
2023-05-01T06:19:26.811Z,30
2023-05-01T06:20:28.901Z,30
2023-05-01T06:21:30.617Z,30
2023-05-01T06:22:32.525Z,30.1
2023-05-01T06:23:34.524Z,30
2023-05-01T06:24:36.479Z,30
2023-05-01T06:25:38.429Z,30.1
2023-05-01T06:26:40.366Z,30.1
2023-05-01T06:27:42.172Z,30.1
2023-05-01T06:28:43.871Z,30.1
2023-05-01T06:29:45.454Z,30.1
2023-05-01T06:30:46.994Z,30.1
2023-05-01T06:31:48.656Z,30
2023-05-01T06:32:50.712Z,30
2023-05-01T06:33:52.709Z,30
2023-05-01T06:34:54.532Z,30
2023-05-01T06:35:56.509Z,30
2023-05-01T06:36:58.368Z,30.1
2023-05-01T06:38:00.266Z,30.1
2023-05-01T06:39:02.272Z,30
2023-05-01T06:40:04.073Z,30.1
2023-05-01T06:41:05.764Z,30
2023-05-01T06:42:07.624Z,30
2023-05-01T06:43:09.361Z,30
2023-05-01T06:44:11.085Z,30
2023-05-01T06:45:12.848Z,29.9
2023-05-01T06:46:14.624Z,30
2023-05-01T06:47:16.459Z,30
2023-05-01T06:48:18.288Z,29.9
2023-05-01T06:49:20.252Z,29.9
2023-05-01T06:50:22.046Z,29.9
2023-05-01T06:51:23.672Z,29.9
2023-05-01T06:52:25.225Z,29.9
2023-05-01T06:53:26.826Z,29.9
2023-05-01T06:54:28.473Z,29.9
2023-05-01T06:55:30.122Z,29.9
2023-05-01T06:56:31.937Z,29.9
2023-05-01T06:57:33.726Z,29.9
2023-05-01T06:58:35.367Z,29.8
2023-05-01T06:59:37.208Z,29.8
2023-05-01T07:00:39.225Z,29.8
2023-05-01T07:01:41.281Z,29.8
2023-05-01T07:02:43.797Z,29.8
2023-05-01T07:03:46.042Z,29.8
2023-05-01T07:04:47.796Z,29.8
2023-05-01T07:05:52.551Z,29.7
2023-05-01T07:06:54.407Z,29.7
2023-05-01T07:08:02.019Z,29.7
2023-05-01T07:09:03.855Z,29.6
2023-05-01T07:10:05.553Z,29.6
2023-05-01T07:11:07.325Z,29.7
2023-05-01T07:12:12.143Z,29.6
2023-05-01T07:13:13.860Z,29.7
2023-05-01T07:14:15.723Z,29.7
2023-05-01T07:15:17.580Z,29.7
2023-05-01T07:16:19.356Z,29.7
2023-05-01T07:17:21.473Z,29.6
2023-05-01T07:18:23.321Z,29.7
2023-05-01T07:19:25.266Z,29.7
2023-05-01T07:20:27.322Z,29.6
2023-05-01T07:21:31.842Z,29.6
2023-05-01T07:22:33.818Z,29.6
2023-05-01T07:23:35.649Z,29.6
2023-05-01T07:24:37.483Z,29.7
2023-05-01T07:25:39.287Z,29.5
2023-05-01T07:26:40.940Z,29.5
2023-05-01T07:27:42.621Z,29.5
2023-05-01T07:28:44.370Z,29.5
2023-05-01T07:29:46.173Z,29.6
2023-05-01T07:30:47.857Z,29.6
2023-05-01T07:31:49.540Z,29.6
2023-05-01T07:32:51.555Z,29.7
2023-05-01T07:33:54.545Z,29.6
2023-05-01T07:34:56.377Z,29.7
2023-05-01T07:35:58.281Z,29.7
2023-05-01T07:36:59.944Z,29.7
2023-05-01T07:38:01.665Z,29.7
2023-05-01T07:39:03.519Z,29.8
2023-05-01T07:40:05.565Z,29.8
2023-05-01T07:41:07.408Z,29.8
2023-05-01T07:42:09.249Z,29.8
2023-05-01T07:43:11.154Z,29.8
2023-05-01T07:44:13.156Z,29.8
2023-05-01T07:45:15.007Z,29.8
2023-05-01T07:46:16.979Z,29.8
2023-05-01T07:47:19.614Z,29.8
2023-05-01T07:48:21.478Z,29.8
2023-05-01T07:49:23.017Z,29.8
2023-05-01T07:50:24.820Z,29.8
2023-05-01T07:51:26.718Z,29.8
2023-05-01T07:52:28.541Z,29.8
2023-05-01T07:53:30.347Z,29.8
2023-05-01T07:54:31.956Z,29.9
2023-05-01T07:55:33.732Z,29.9
2023-05-01T07:56:35.457Z,29.9
2023-05-01T07:57:37.277Z,29.9
2023-05-01T07:58:38.957Z,29.9
2023-05-01T07:59:40.746Z,30
2023-05-01T08:00:42.393Z,30
2023-05-01T08:01:44.096Z,29.9
2023-05-01T08:02:46.053Z,29.9
2023-05-01T08:03:51.244Z,29.8
2023-05-01T08:04:54.060Z,29.8
2023-05-01T08:05:56.008Z,29.8
2023-05-01T08:06:58.181Z,29.8
2023-05-01T08:08:00.102Z,29.8
2023-05-01T08:09:01.994Z,29.8
2023-05-01T08:10:04.417Z,29.9
2023-05-01T08:11:09.137Z,29.9
2023-05-01T08:12:10.885Z,30
2023-05-01T08:13:12.739Z,30
2023-05-01T08:14:14.532Z,30
2023-05-01T08:15:16.141Z,30
2023-05-01T08:16:22.084Z,30
2023-05-01T08:17:24.251Z,29.9
2023-05-01T08:18:26.179Z,29.8
2023-05-01T08:19:28.027Z,29.8
2023-05-01T08:20:29.821Z,29.8
2023-05-01T08:21:31.421Z,29.7
2023-05-01T08:22:33.091Z,29.8
2023-05-01T08:23:34.672Z,29.7
2023-05-01T08:24:36.393Z,29.7
2023-05-01T08:25:38.214Z,29.7
2023-05-01T08:26:40.072Z,29.7
2023-05-01T08:27:42.015Z,29.7
2023-05-01T08:28:43.862Z,29.7
2023-05-01T08:29:45.838Z,29.6
2023-05-01T08:30:47.775Z,29.6
2023-05-01T08:31:49.632Z,29.6
2023-05-01T08:32:51.634Z,29.6
2023-05-01T08:33:53.716Z,29.7
2023-05-01T08:34:55.586Z,29.7
2023-05-01T08:35:57.446Z,29.7
2023-05-01T08:36:59.282Z,29.7
2023-05-01T08:38:01.338Z,29.7
2023-05-01T08:39:03.138Z,29.7
2023-05-01T08:40:04.782Z,29.7
2023-05-01T08:41:06.477Z,29.7
2023-05-01T08:42:08.308Z,29.7
2023-05-01T08:43:09.980Z,29.7
2023-05-01T08:44:11.561Z,29.7
2023-05-01T08:45:13.140Z,29.6
2023-05-01T08:46:14.889Z,29.6
2023-05-01T08:47:16.792Z,29.6
2023-05-01T08:48:18.783Z,29.6
2023-05-01T08:49:20.605Z,29.6
2023-05-01T08:50:22.493Z,29.7
2023-05-01T08:51:24.778Z,29.7
2023-05-01T08:52:26.570Z,29.7
2023-05-01T08:53:28.371Z,29.7
2023-05-01T08:54:30.236Z,29.7
2023-05-01T08:55:32.396Z,29.7
2023-05-01T08:56:34.521Z,29.7
2023-05-01T08:57:36.487Z,29.7
2023-05-01T08:58:38.343Z,29.6
2023-05-01T08:59:40.098Z,29.6
2023-05-01T09:00:41.682Z,29.5
2023-05-01T09:01:43.422Z,29.5
2023-05-01T09:02:45.479Z,29.5
2023-05-01T09:03:47.550Z,29.5
2023-05-01T09:04:49.423Z,29.6
2023-05-01T09:05:51.283Z,29.5
2023-05-01T09:06:53.185Z,29.6
2023-05-01T09:07:55.500Z,29.5
2023-05-01T09:08:57.244Z,29.5
2023-05-01T09:09:59.237Z,29.5
2023-05-01T09:11:01.184Z,29.5
2023-05-01T09:12:03.024Z,29.5
2023-05-01T09:13:04.713Z,29.5
2023-05-01T09:14:06.387Z,29.4
2023-05-01T09:15:08.238Z,29.4
2023-05-01T09:16:10.216Z,29.4
2023-05-01T09:17:12.249Z,29.4
2023-05-01T09:18:14.294Z,29.4
2023-05-01T09:19:16.329Z,29.4
2023-05-01T09:20:18.205Z,29.3
2023-05-01T09:21:20.002Z,29.3
2023-05-01T09:22:21.600Z,29.3
2023-05-01T09:23:23.451Z,29.2
2023-05-01T09:24:25.412Z,29.3
2023-05-01T09:25:27.225Z,29.3
2023-05-01T09:26:28.924Z,29.2
2023-05-01T09:27:30.592Z,29.2
2023-05-01T09:28:32.178Z,29.2
2023-05-01T09:29:33.939Z,29.2
2023-05-01T09:30:35.663Z,29.2
2023-05-01T09:31:37.538Z,29.2
2023-05-01T09:32:42.970Z,29.2
2023-05-01T09:33:44.972Z,29.2
2023-05-01T09:34:46.613Z,29.2
2023-05-01T09:35:48.210Z,29.2
2023-05-01T09:36:49.804Z,29.2
2023-05-01T09:37:51.371Z,29.2
2023-05-01T09:38:53.019Z,29.2
2023-05-01T09:39:55.032Z,29.1
2023-05-01T09:40:57.567Z,29.1
2023-05-01T09:41:59.756Z,29.1
2023-05-01T09:43:01.533Z,29.2
2023-05-01T09:44:03.250Z,29.2
2023-05-01T09:45:05.006Z,29.2
2023-05-01T09:46:06.842Z,29.2
2023-05-01T09:47:09.103Z,29.2
2023-05-01T09:48:11.725Z,29.2
2023-05-01T09:49:14.002Z,29.2
2023-05-01T09:50:15.822Z,29.1
2023-05-01T09:51:17.491Z,29.1
2023-05-01T09:52:19.349Z,29.1
2023-05-01T09:53:21.193Z,29
2023-05-01T09:54:22.909Z,29.1
2023-05-01T09:55:26.116Z,29
2023-05-01T09:56:28.092Z,29
2023-05-01T09:57:29.955Z,28.9
2023-05-01T09:58:31.729Z,28.9
2023-05-01T09:59:33.304Z,28.9
2023-05-01T10:00:34.897Z,28.8
2023-05-01T10:01:36.736Z,28.8
2023-05-01T10:02:39.030Z,28.7
2023-05-01T10:03:41.763Z,28.7
2023-05-01T10:04:44.001Z,28.7
2023-05-01T10:05:45.858Z,28.7
2023-05-01T10:06:47.858Z,28.8
2023-05-01T10:07:49.962Z,28.8
2023-05-01T10:08:51.666Z,28.7
2023-05-01T10:09:53.325Z,28.6
2023-05-01T10:10:55.531Z,28.6
2023-05-01T10:11:57.544Z,28.7
2023-05-01T10:12:59.765Z,28.8
2023-05-01T10:14:01.593Z,28.7
2023-05-01T10:15:24.388Z,28.6
2023-05-01T10:16:28.656Z,28.5
2023-05-01T10:17:30.614Z,28.4
2023-05-01T10:18:32.507Z,28.3
2023-05-01T10:19:34.295Z,28.5
2023-05-01T10:20:36.026Z,28.5
2023-05-01T10:21:37.875Z,28.5
2023-05-01T10:22:39.722Z,28.5
2023-05-01T10:23:41.513Z,28.5
2023-05-01T10:24:43.146Z,28.6
2023-05-01T10:25:44.815Z,28.6
2023-05-01T10:26:46.643Z,28.5
2023-05-01T10:27:48.365Z,28.3
2023-05-01T10:28:50.611Z,28.4
2023-05-01T10:29:52.344Z,28.2
2023-05-01T10:30:54.279Z,28.2
2023-05-01T10:31:56.515Z,28.3
2023-05-01T10:32:59.053Z,28.2
2023-05-01T10:34:01.192Z,28.3
2023-05-01T10:35:03.160Z,28.4
2023-05-01T10:36:04.952Z,28.1
2023-05-01T10:37:06.768Z,28.2
2023-05-01T10:38:08.565Z,27.9
2023-05-01T10:39:10.227Z,28.1
2023-05-01T10:40:11.842Z,28
2023-05-01T10:41:13.437Z,28.1
2023-05-01T10:42:15.183Z,28
2023-05-01T10:43:17.154Z,27.9
2023-05-01T10:44:19.005Z,27.7
2023-05-01T10:45:21.146Z,27.6
2023-05-01T10:46:23.107Z,27.6
2023-05-01T10:47:25.522Z,27.5
2023-05-01T10:48:27.645Z,27.5
2023-05-01T10:49:29.456Z,27.5
2023-05-01T10:50:31.405Z,27.5
2023-05-01T10:51:35.853Z,27.5
2023-05-01T10:52:37.678Z,27.4
2023-05-01T10:53:39.484Z,27.4
2023-05-01T10:54:41.484Z,27.5
2023-05-01T10:55:43.336Z,27.5
2023-05-01T10:56:45.142Z,27.5
2023-05-01T10:57:46.932Z,27.3
2023-05-01T10:58:48.751Z,27.4
2023-05-01T10:59:50.550Z,27.5
2023-05-01T11:00:52.479Z,27.3
2023-05-01T11:01:54.680Z,27.5
2023-05-01T11:02:56.721Z,27.3
2023-05-01T11:03:58.746Z,27.3
2023-05-01T11:05:01.194Z,27.4
2023-05-01T11:06:03.801Z,27.3
2023-05-01T11:07:06.368Z,27.3
2023-05-01T11:08:08.132Z,27.3
2023-05-01T11:09:10.045Z,27.3
2023-05-01T11:10:11.884Z,27.3
2023-05-01T11:11:13.691Z,27.3
2023-05-01T11:12:15.381Z,27.4
2023-05-01T11:13:17.185Z,27.3
2023-05-01T11:14:18.863Z,27.2
2023-05-01T11:15:20.575Z,27.3
2023-05-01T11:16:22.255Z,27.2
2023-05-01T11:17:24.346Z,27.3
2023-05-01T11:18:26.137Z,27.3
2023-05-01T11:19:29.606Z,27.2
2023-05-01T11:20:31.419Z,27.2
2023-05-01T11:21:33.224Z,27.2
2023-05-01T11:22:34.905Z,27.3
2023-05-01T11:23:36.496Z,27.3
2023-05-01T11:24:38.307Z,27.2
2023-05-01T11:25:40.057Z,27.4
2023-05-01T11:26:41.902Z,27.3
2023-05-01T11:27:43.735Z,27.4
2023-05-01T11:28:45.522Z,27.3
2023-05-01T11:29:47.113Z,27.3
2023-05-01T11:30:48.993Z,27.3
2023-05-01T11:31:53.948Z,27.4
2023-05-01T11:32:55.992Z,27.3
2023-05-01T11:33:57.826Z,27.3
2023-05-01T11:35:00.338Z,27.3
2023-05-01T11:36:02.339Z,27.3
2023-05-01T11:37:04.197Z,27.3
2023-05-01T11:38:06.035Z,27.3
2023-05-01T11:39:07.920Z,27.3
2023-05-01T11:40:09.734Z,27.3
2023-05-01T11:41:11.770Z,27.4
2023-05-01T11:42:13.891Z,27.4
2023-05-01T11:43:16.001Z,27.5
2023-05-01T11:44:17.979Z,27.4
2023-05-01T11:45:19.930Z,27.4
2023-05-01T11:46:21.831Z,27.4
2023-05-01T11:47:23.849Z,27.5
2023-05-01T11:48:25.670Z,27.2
2023-05-01T11:49:27.614Z,27.4
2023-05-01T11:50:29.421Z,27.3
2023-05-01T11:51:31.090Z,27.3
2023-05-01T11:52:32.850Z,27.3
2023-05-01T11:53:34.663Z,27.2
2023-05-01T11:54:36.675Z,27.4
2023-05-01T11:55:38.550Z,27.1
2023-05-01T11:56:40.349Z,27.1
2023-05-01T11:57:42.228Z,27
2023-05-01T11:58:44.369Z,27
2023-05-01T11:59:46.327Z,27.2
2023-05-01T12:00:48.171Z,27
2023-05-01T12:01:50.218Z,27.1
2023-05-01T12:02:52.457Z,27.1
2023-05-01T12:03:55.028Z,27.2
2023-05-01T12:04:57.666Z,27.1
2023-05-01T12:06:00.538Z,27
2023-05-01T12:07:02.654Z,27.1
2023-05-01T12:08:04.502Z,27
2023-05-01T12:09:06.362Z,27.2
2023-05-01T12:10:08.155Z,27.2
2023-05-01T12:11:09.772Z,27.2
2023-05-01T12:12:11.419Z,27.2
2023-05-01T12:13:12.974Z,27.2
2023-05-01T12:14:14.583Z,27.1
2023-05-01T12:15:16.390Z,27.1
2023-05-01T12:16:18.395Z,26.8
2023-05-01T12:17:20.795Z,26.9
2023-05-01T12:18:23.368Z,26.6
2023-05-01T12:19:25.673Z,26.6
2023-05-01T12:20:27.376Z,26.5
2023-05-01T12:21:28.987Z,26.6
2023-05-01T12:22:30.682Z,26.4
2023-05-01T12:23:32.372Z,26.5
2023-05-01T12:24:34.214Z,26.5
2023-05-01T12:25:36.131Z,26.5
2023-05-01T12:26:37.912Z,26.5
2023-05-01T12:27:39.751Z,26.6
2023-05-01T12:28:41.457Z,26.5
2023-05-01T12:29:43.157Z,26.6
2023-05-01T12:30:45.208Z,26.6
2023-05-01T12:31:47.100Z,26.6
2023-05-01T12:32:49.162Z,26.6
2023-05-01T12:33:51.270Z,26.6
2023-05-01T12:34:53.218Z,26.6
2023-05-01T12:35:54.972Z,26.6
2023-05-01T12:36:56.821Z,26.6
2023-05-01T12:37:58.667Z,26.6
2023-05-01T12:39:00.447Z,26.6
2023-05-01T12:40:02.178Z,26.5
2023-05-01T12:41:03.812Z,26.5
2023-05-01T12:42:05.419Z,26.5
2023-05-01T12:43:07.104Z,26.5
2023-05-01T12:44:08.894Z,26.4
2023-05-01T12:45:10.644Z,26.3
2023-05-01T12:46:12.390Z,26.4
2023-05-01T12:47:14.101Z,26.4
2023-05-01T12:48:15.975Z,26.3
2023-05-01T12:49:17.884Z,26.2
2023-05-01T12:50:19.755Z,26.3
2023-05-01T12:51:24.660Z,26.2
2023-05-01T12:52:26.515Z,26.2
2023-05-01T12:53:28.464Z,26.2
2023-05-01T12:54:30.307Z,26.2
2023-05-01T12:55:32.046Z,26.2
2023-05-01T12:56:33.600Z,26.3
2023-05-01T12:57:35.333Z,26.3
2023-05-01T12:58:36.994Z,26.3
2023-05-01T12:59:38.844Z,26.4
2023-05-01T13:00:40.703Z,26.4
2023-05-01T13:01:42.689Z,26.3
2023-05-01T13:02:44.850Z,26.4
2023-05-01T13:03:46.998Z,26.4
2023-05-01T13:04:48.960Z,26.4
2023-05-01T13:05:51.500Z,26.3
2023-05-01T13:06:53.577Z,26.4
2023-05-01T13:07:55.597Z,26.5
2023-05-01T13:08:57.336Z,26.5
2023-05-01T13:10:00.057Z,26.4
2023-05-01T13:11:03.702Z,26.4
2023-05-01T13:12:05.654Z,26.3
2023-05-01T13:13:07.701Z,26.3
2023-05-01T13:14:09.556Z,26.4
2023-05-01T13:15:11.406Z,26.4
2023-05-01T13:16:13.481Z,26.4
2023-05-01T13:17:15.446Z,26.4
2023-05-01T13:18:17.160Z,26.5
2023-05-01T13:19:19.048Z,26.5
2023-05-01T13:20:20.872Z,26.5
2023-05-01T13:21:22.719Z,26.6
2023-05-01T13:22:24.679Z,26.6
2023-05-01T13:23:26.511Z,26.6
2023-05-01T13:24:28.368Z,26.7
2023-05-01T13:25:30.122Z,26.9
2023-05-01T13:26:31.969Z,26.9
2023-05-01T13:27:33.709Z,26.9
2023-05-01T13:28:35.662Z,26.9
2023-05-01T13:29:37.313Z,27.1
2023-05-01T13:30:39.172Z,27
2023-05-01T13:31:41.136Z,27
2023-05-01T13:32:43.281Z,27
2023-05-01T13:33:45.320Z,27
2023-05-01T13:34:47.205Z,27
2023-05-01T13:35:49.026Z,26.9
2023-05-01T13:36:50.872Z,26.9
2023-05-01T13:37:52.825Z,26.9
2023-05-01T13:38:54.774Z,26.9
2023-05-01T13:39:56.983Z,26.8
2023-05-01T13:41:02.272Z,26.8
2023-05-01T13:42:04.082Z,26.9
2023-05-01T13:43:05.672Z,27
2023-05-01T13:44:07.401Z,27
2023-05-01T13:45:09.207Z,27.1
2023-05-01T13:46:11.035Z,27.1
2023-05-01T13:47:12.966Z,27
2023-05-01T13:48:14.803Z,27
2023-05-01T13:49:16.679Z,26.9
2023-05-01T13:50:18.634Z,26.9